createdAt,value
2023-05-12T00:01:37.447Z,10.80
2023-05-12T00:04:08.669Z,10.78
2023-05-12T00:06:37.993Z,11.60
2023-05-12T00:09:07.196Z,11.50
2023-05-12T00:11:36.495Z,11.22
2023-05-12T00:14:05.807Z,10.00
2023-05-12T00:16:34.947Z,10.07
2023-05-12T00:21:34.618Z,10.15
2023-05-12T00:24:03.812Z,9.55
2023-05-12T00:26:33.115Z,8.98
2023-05-12T00:29:04.069Z,7.90
2023-05-12T00:31:33.395Z,8.10
2023-05-12T00:34:02.653Z,7.87
2023-05-12T00:36:32.063Z,7.33
2023-05-12T00:39:01.467Z,6.35
2023-05-12T00:41:32.202Z,6.55
2023-05-12T00:44:01.713Z,6.10
2023-05-12T00:46:30.944Z,5.17
2023-05-12T00:48:59.993Z,5.27
2023-05-12T00:51:30.852Z,5.62
2023-05-12T00:54:00.042Z,4.65
2023-05-12T00:56:29.574Z,4.25
2023-05-12T00:58:58.735Z,4.10
2023-05-12T01:01:28.284Z,4.63
2023-05-12T01:03:57.858Z,4.17
2023-05-12T01:06:27.356Z,3.83
2023-05-12T01:08:56.756Z,3.70
2023-05-12T01:11:26.062Z,4.00
2023-05-12T01:13:55.467Z,3.52
2023-05-12T01:16:24.639Z,3.08
2023-05-12T01:18:53.802Z,3.15
2023-05-12T01:21:23.778Z,3.10
2023-05-12T01:23:53.681Z,3.35
2023-05-12T01:26:24.167Z,2.67
2023-05-12T01:28:54.136Z,3.00
2023-05-12T01:31:23.660Z,3.15
2023-05-12T01:33:52.947Z,2.63
2023-05-12T01:36:24.024Z,3.17
2023-05-12T01:38:53.288Z,2.77
2023-05-12T01:41:22.574Z,2.90
2023-05-12T01:43:53.520Z,2.75
2023-05-12T01:46:22.701Z,2.47
2023-05-12T01:48:56.210Z,2.27
2023-05-12T01:51:25.614Z,2.25
2023-05-12T01:53:55.827Z,2.87
2023-05-12T01:56:25.028Z,2.77
2023-05-12T01:58:54.435Z,2.67
2023-05-12T02:01:24.166Z,2.22
2023-05-12T02:03:53.521Z,2.70
2023-05-12T02:06:24.289Z,2.70
2023-05-12T02:08:53.893Z,2.17
2023-05-12T02:11:23.486Z,2.35
2023-05-12T02:13:52.588Z,2.10
2023-05-12T02:16:22.534Z,2.20
2023-05-12T02:18:52.856Z,2.12
2023-05-12T02:21:22.339Z,2.20
2023-05-12T02:23:52.144Z,2.20
2023-05-12T02:26:21.352Z,2.25
2023-05-12T02:28:50.656Z,2.17
2023-05-12T02:31:20.086Z,2.12
2023-05-12T02:33:50.175Z,2.20
2023-05-12T02:36:19.312Z,2.52
2023-05-12T02:38:48.577Z,2.47
2023-05-12T02:41:17.455Z,2.40
2023-05-12T02:43:46.664Z,2.40
2023-05-12T02:46:15.904Z,2.60
2023-05-12T02:48:44.965Z,2.50
2023-05-12T02:51:14.159Z,2.65
2023-05-12T02:53:43.649Z,3.02
2023-05-12T02:56:12.653Z,3.15
2023-05-12T02:58:41.541Z,3.08
2023-05-12T03:01:11.598Z,2.70
2023-05-12T03:03:41.411Z,2.92
2023-05-12T03:06:11.915Z,3.33
2023-05-12T03:11:10.715Z,2.80
2023-05-12T03:13:39.949Z,2.47
2023-05-12T03:16:09.222Z,2.92
2023-05-12T03:18:38.421Z,2.73
2023-05-12T03:21:07.609Z,2.52
2023-05-12T03:26:06.714Z,3.20
2023-05-12T03:28:37.265Z,3.58
2023-05-12T03:31:06.391Z,3.23
2023-05-12T03:33:35.746Z,3.00
2023-05-12T03:36:04.864Z,3.40
2023-05-12T03:38:34.315Z,2.85
2023-05-12T03:41:03.546Z,3.37
2023-05-12T03:43:32.852Z,3.90
2023-05-12T03:46:01.827Z,3.47
2023-05-12T03:48:31.287Z,3.75
2023-05-12T13:33:16.541Z,4.35
2023-05-12T13:35:45.749Z,4.40
2023-05-12T13:38:14.736Z,4.53
2023-05-12T13:40:43.632Z,4.50
2023-05-12T13:43:12.832Z,4.10
2023-05-12T13:45:41.716Z,16.53
2023-05-12T13:48:10.780Z,52.90
2023-05-12T13:50:39.913Z,37.33
2023-05-12T13:53:09.136Z,21.03
2023-05-12T13:55:41.002Z,16.48
2023-05-12T13:58:08.425Z,11.18
2023-05-12T14:00:37.513Z,10.40
2023-05-12T14:03:06.583Z,8.70
2023-05-12T14:05:35.867Z,7.62
2023-05-12T14:08:05.227Z,7.17
2023-05-12T14:10:34.417Z,5.73
2023-05-12T14:13:03.517Z,5.40
2023-05-12T14:15:47.320Z,5.30
2023-05-12T14:18:02.797Z,4.05
2023-05-12T14:20:34.287Z,4.03
2023-05-12T14:23:03.179Z,3.40
2023-05-12T14:25:32.346Z,3.20
2023-05-12T14:28:01.503Z,2.80
2023-05-12T14:30:30.800Z,2.50
2023-05-12T14:32:59.907Z,2.70
2023-05-12T14:35:29.080Z,2.52
2023-05-12T14:37:58.056Z,4.08
2023-05-12T14:40:27.257Z,5.67
2023-05-12T14:42:56.423Z,6.05
2023-05-12T14:45:25.497Z,9.38
2023-05-12T14:47:54.814Z,9.43
2023-05-12T14:50:24.457Z,8.83
2023-05-12T14:55:47.040Z,8.93
2023-05-12T14:58:17.704Z,9.13
2023-05-12T15:00:47.012Z,8.93
2023-05-12T15:03:16.207Z,8.70
2023-05-12T15:06:01.678Z,7.95
2023-05-12T15:08:15.778Z,7.15
2023-05-12T15:10:44.767Z,7.30
2023-05-12T15:13:13.985Z,6.90
2023-05-12T15:15:42.826Z,6.90
2023-05-12T15:18:11.910Z,6.90
2023-05-12T15:20:41.058Z,6.30
2023-05-12T15:23:10.460Z,5.55
2023-05-12T15:25:39.322Z,5.22
2023-05-12T15:28:08.244Z,5.50
2023-05-12T15:30:37.426Z,4.45
2023-05-12T15:33:08.513Z,4.50
2023-05-12T15:35:37.469Z,4.15
2023-05-12T15:38:06.549Z,3.65
2023-05-12T15:40:35.495Z,3.92
2023-05-12T15:43:04.533Z,4.20
2023-05-12T15:45:33.861Z,3.70
2023-05-12T15:48:06.138Z,3.35
2023-05-12T15:53:02.181Z,2.62
2023-05-12T15:55:31.049Z,2.83
2023-05-12T15:57:59.941Z,2.52
2023-05-12T16:00:29.101Z,2.58
2023-05-12T16:02:58.411Z,2.70
2023-05-12T16:07:57.040Z,2.58
2023-05-12T16:10:26.009Z,2.08
2023-05-12T16:12:56.552Z,2.25
2023-05-12T16:15:25.450Z,2.45
2023-05-12T16:17:54.562Z,1.80
2023-05-12T16:20:23.854Z,1.95
2023-05-12T16:22:52.963Z,1.60
2023-05-12T16:25:22.129Z,1.70
2023-05-12T16:27:52.882Z,1.70
2023-05-12T16:30:21.976Z,1.47
2023-05-12T16:32:51.092Z,1.50
2023-05-12T16:35:20.332Z,1.60
2023-05-12T16:37:49.374Z,1.50
2023-05-12T16:40:18.249Z,1.42
2023-05-12T16:42:47.144Z,1.25
2023-05-12T16:45:16.449Z,1.20
2023-05-12T16:47:45.407Z,1.05
2023-05-12T16:50:14.630Z,1.00
2023-05-12T16:52:43.530Z,1.05
2023-05-12T16:55:13.203Z,1.30
2023-05-12T16:57:43.510Z,1.20
2023-05-12T17:00:12.663Z,0.90
2023-05-12T17:02:41.842Z,0.98
2023-05-12T17:05:10.947Z,0.97
2023-05-12T17:07:39.847Z,1.10
2023-05-12T17:10:08.849Z,1.15
2023-05-12T17:12:37.743Z,1.12
2023-05-12T17:15:08.322Z,0.88
2023-05-12T17:17:37.274Z,0.90
2023-05-12T17:20:06.351Z,1.00
2023-05-12T17:22:35.545Z,0.70
2023-05-12T17:25:04.745Z,1.00
2023-05-12T17:27:33.737Z,1.30
2023-05-12T17:30:02.623Z,1.10
2023-05-12T17:32:31.659Z,1.40
2023-05-12T17:35:00.926Z,0.93
2023-05-12T17:37:30.016Z,0.90
2023-05-12T17:39:59.114Z,0.80
2023-05-12T17:42:28.074Z,0.68
2023-05-12T17:44:57.204Z,0.80
2023-05-12T17:47:26.285Z,0.80
2023-05-12T17:49:55.291Z,0.95
2023-05-12T17:52:24.586Z,0.78
2023-05-12T17:54:53.683Z,0.70
2023-05-12T17:57:22.682Z,1.10
2023-05-12T17:59:51.869Z,0.80
2023-05-12T18:02:20.967Z,0.80
2023-05-12T18:04:49.972Z,0.62
2023-05-12T18:07:18.855Z,0.70
2023-05-12T18:09:47.968Z,0.50
2023-05-12T18:12:16.845Z,0.70
2023-05-12T18:14:45.945Z,0.70
2023-05-12T18:17:14.957Z,1.00
2023-05-12T18:19:43.924Z,0.82
2023-05-12T18:22:12.787Z,0.78
2023-05-12T18:24:41.920Z,0.80
2023-05-12T18:27:11.220Z,0.65
2023-05-12T18:29:40.307Z,0.70
2023-05-12T18:32:09.512Z,0.70
2023-05-12T18:34:38.401Z,0.65
2023-05-12T18:37:07.392Z,0.80
2023-05-12T18:39:36.702Z,0.70
2023-05-12T18:42:06.083Z,0.73
2023-05-12T18:44:35.104Z,0.70
2023-05-12T18:47:03.980Z,0.90
2023-05-12T18:49:33.182Z,0.80
2023-05-12T18:52:02.390Z,0.80
2023-05-12T18:54:31.789Z,1.15
2023-05-12T18:57:01.394Z,0.75
2023-05-12T18:59:30.784Z,0.70
2023-05-12T19:01:59.683Z,0.70
2023-05-12T19:04:28.777Z,0.72
2023-05-12T19:06:58.185Z,1.00
2023-05-12T19:09:27.273Z,0.80
2023-05-12T19:11:56.477Z,0.75
2023-05-12T19:14:25.547Z,1.25
2023-05-12T19:16:54.559Z,0.90
2023-05-12T19:19:23.766Z,0.80
2023-05-12T19:21:52.877Z,0.70
2023-05-12T19:24:22.059Z,0.88
2023-05-12T19:26:51.254Z,0.70
2023-05-12T19:29:20.663Z,0.70
2023-05-12T19:31:50.087Z,1.00
2023-05-12T19:34:19.469Z,0.93
2023-05-12T19:36:48.767Z,0.90
2023-05-12T19:39:18.065Z,0.80
2023-05-12T19:41:46.854Z,0.90
2023-05-12T19:44:16.148Z,1.35
2023-05-12T19:46:45.461Z,1.35
2023-05-12T19:49:14.661Z,1.10
2023-05-12T19:51:43.957Z,1.00
2023-05-12T19:54:13.045Z,1.10
2023-05-12T19:56:42.020Z,1.20
2023-05-12T19:59:11.256Z,1.35
2023-05-12T20:01:40.733Z,1.00
2023-05-12T20:04:10.151Z,1.30
2023-05-12T20:06:39.247Z,1.07
2023-05-12T20:09:08.448Z,1.05
2023-05-12T20:11:37.864Z,1.22
2023-05-12T20:14:07.146Z,1.17
2023-05-12T20:16:36.520Z,1.27
2023-05-12T20:19:05.836Z,1.02
2023-05-12T20:21:35.163Z,1.00
2023-05-12T20:24:04.240Z,0.85
2023-05-12T20:26:33.334Z,1.05
2023-05-12T20:29:02.549Z,1.00
2023-05-12T20:31:31.878Z,1.10
2023-05-12T20:34:01.147Z,1.05
2023-05-12T20:36:31.776Z,1.07
2023-05-12T20:39:00.978Z,1.77
2023-05-12T20:41:30.045Z,1.05
2023-05-12T20:43:59.301Z,0.90
2023-05-12T20:46:28.627Z,1.10
2023-05-12T20:48:59.199Z,1.12
2023-05-12T20:51:28.503Z,1.15
2023-05-12T20:53:57.593Z,1.37
2023-05-12T20:56:26.723Z,1.25
2023-05-12T20:58:55.898Z,1.00
2023-05-12T21:01:25.293Z,1.12
2023-05-12T21:03:54.444Z,0.90
2023-05-12T21:06:23.482Z,1.05
2023-05-12T21:08:52.990Z,0.90
2023-05-12T21:11:22.175Z,1.20
2023-05-12T21:13:51.383Z,1.00
2023-05-12T21:16:20.734Z,1.07
2023-05-12T21:18:49.961Z,1.20
2023-05-12T21:21:19.279Z,1.32
2023-05-12T21:23:48.485Z,0.90
2023-05-12T21:26:17.684Z,1.25
2023-05-12T21:28:46.874Z,0.80
2023-05-12T21:31:16.036Z,0.90
2023-05-12T21:33:45.273Z,0.98
2023-05-12T21:36:14.686Z,1.00
2023-05-12T21:38:43.979Z,1.00
2023-05-12T21:41:13.270Z,1.00
2023-05-12T21:43:42.264Z,1.20
2023-05-12T21:46:11.694Z,0.93
2023-05-12T21:48:40.768Z,0.93
2023-05-12T21:51:09.977Z,0.85
2023-05-12T21:53:39.243Z,1.22
2023-05-12T21:56:08.361Z,0.82
2023-05-12T21:58:37.668Z,0.90
2023-05-12T22:01:07.005Z,0.93
2023-05-12T22:03:36.096Z,0.85
2023-05-12T22:06:05.233Z,0.93
2023-05-12T22:08:34.449Z,1.00
2023-05-12T22:11:03.639Z,1.22
2023-05-12T22:13:33.270Z,1.22
2023-05-12T22:16:02.413Z,1.07
2023-05-12T22:18:31.639Z,1.60
2023-05-12T22:21:00.859Z,1.37
2023-05-12T22:23:30.380Z,1.00
2023-05-12T22:25:59.764Z,1.40
2023-05-12T22:28:28.757Z,1.30
2023-05-12T22:30:57.893Z,1.45
2023-05-12T22:33:26.848Z,1.50
2023-05-12T22:35:57.480Z,1.40
2023-05-12T22:38:26.891Z,1.60
2023-05-12T22:40:56.188Z,1.62
2023-05-12T22:43:25.280Z,1.60
2023-05-12T22:45:54.578Z,1.87
2023-05-12T22:48:23.681Z,1.70
2023-05-12T22:50:52.982Z,1.98
2023-05-12T22:53:22.172Z,2.12
2023-05-12T22:55:51.265Z,2.20
2023-05-12T22:58:20.375Z,2.58
2023-05-12T23:00:49.777Z,2.20
2023-05-12T23:03:18.970Z,2.13
2023-05-12T23:05:48.170Z,2.17
2023-05-12T23:08:17.463Z,2.70
2023-05-12T23:10:46.455Z,2.60
2023-05-12T23:13:15.665Z,2.72
2023-05-12T23:15:44.960Z,2.70
2023-05-12T23:18:14.254Z,2.50
2023-05-12T23:20:43.557Z,2.80
2023-05-12T23:23:12.662Z,3.07
2023-05-12T23:25:41.869Z,3.17
2023-05-12T23:28:11.052Z,3.35
2023-05-12T23:30:40.364Z,3.80
2023-05-12T23:33:09.779Z,3.80
2023-05-12T23:35:39.058Z,3.35
2023-05-12T23:38:08.482Z,2.62
2023-05-12T23:40:37.766Z,2.87
2023-05-12T23:43:07.063Z,3.33
2023-05-12T23:45:36.267Z,3.40
2023-05-12T23:48:05.725Z,3.70
2023-05-12T23:50:35.167Z,3.80
2023-05-12T23:53:04.575Z,3.72
2023-05-12T23:55:33.758Z,3.72
2023-05-12T23:58:02.868Z,4.45
